createdAt,value
2023-03-21T00:01:50.956Z,11.80
2023-03-21T00:04:17.996Z,11.80
2023-03-21T00:06:45.647Z,11.80
2023-03-21T00:09:12.784Z,11.80
2023-03-21T00:11:40.699Z,11.80
2023-03-21T00:14:08.757Z,11.80
2023-03-21T00:16:39.116Z,11.80
2023-03-21T00:19:07.452Z,11.80
2023-03-21T00:21:55.697Z,11.70
2023-03-21T00:24:25.464Z,11.80
2023-03-21T00:26:52.165Z,11.80
2023-03-21T00:29:19.040Z,11.80
2023-03-21T00:31:45.815Z,11.70
2023-03-21T00:36:40.370Z,11.70
2023-03-21T00:39:07.759Z,11.80
2023-03-21T00:41:42.389Z,11.70
2023-03-21T00:44:11.746Z,11.80
2023-03-21T00:46:57.353Z,11.70
2023-03-21T00:49:25.942Z,11.80
2023-03-21T00:51:54.984Z,11.70
2023-03-21T00:54:21.952Z,11.70
2023-03-21T00:56:48.651Z,11.70
2023-03-21T00:59:15.365Z,11.70
2023-03-21T01:01:42.119Z,11.70
2023-03-21T01:04:13.535Z,11.70
2023-03-21T01:06:42.033Z,11.70
2023-03-21T01:09:17.402Z,11.70
2023-03-21T01:11:45.145Z,11.70
2023-03-21T01:14:28.597Z,11.70
2023-03-21T01:16:55.266Z,11.70
2023-03-21T01:19:37.584Z,11.70
2023-03-21T01:22:08.913Z,11.70
2023-03-21T01:24:40.424Z,11.70
2023-03-21T01:27:13.385Z,11.70
2023-03-21T01:29:40.077Z,11.70
2023-03-21T01:32:06.984Z,11.70
2023-03-21T01:34:33.646Z,11.70
2023-03-21T01:37:00.586Z,11.70
2023-03-21T01:39:27.266Z,11.70
2023-03-21T01:41:54.898Z,11.70
2023-03-21T01:44:21.636Z,11.70
2023-03-21T01:47:03.920Z,11.70
2023-03-21T01:49:40.825Z,11.70
2023-03-21T01:52:20.997Z,11.70
2023-03-21T01:54:53.075Z,11.70
2023-03-21T01:57:40.378Z,11.70
2023-03-21T02:00:12.955Z,11.70
2023-03-21T02:02:52.204Z,11.60
2023-03-21T02:05:28.766Z,11.60
2023-03-21T02:07:55.485Z,11.60
2023-03-21T02:10:22.550Z,11.70
2023-03-21T02:12:55.163Z,11.60
2023-03-21T02:15:26.399Z,11.60
2023-03-21T02:18:23.397Z,11.60
2023-03-21T02:21:31.726Z,11.60
2023-03-21T02:24:31.078Z,11.60
2023-03-21T02:27:15.694Z,11.60
2023-03-21T02:29:52.334Z,11.60
2023-03-21T02:32:44.645Z,11.60
2023-03-21T02:35:20.079Z,11.60
2023-03-21T02:38:00.545Z,11.60
2023-03-21T02:40:32.964Z,11.60
2023-03-21T02:43:22.477Z,11.60
2023-03-21T02:46:02.054Z,11.60
2023-03-21T02:48:50.125Z,11.50
2023-03-21T02:51:21.457Z,11.60
2023-03-21T02:54:23.743Z,11.60
2023-03-21T02:56:49.008Z,11.60
2023-03-21T02:59:17.554Z,11.60
2023-03-21T03:01:44.248Z,11.50
2023-03-21T03:04:20.242Z,11.50
2023-03-21T03:07:11.748Z,11.60
2023-03-21T03:09:38.658Z,11.50
2023-03-21T03:12:52.208Z,11.50
2023-03-21T03:15:28.284Z,11.50
2023-03-21T03:18:11.570Z,11.50
2023-03-21T03:21:04.682Z,11.50
2023-03-21T03:23:36.318Z,11.50
2023-03-21T03:26:08.757Z,11.50
2023-03-21T03:28:46.665Z,11.50
2023-03-21T03:31:17.151Z,11.50
2023-03-21T03:33:49.264Z,11.50
2023-03-21T03:36:33.429Z,11.50
2023-03-21T03:39:04.606Z,11.50
2023-03-21T03:42:01.421Z,11.50
2023-03-21T03:44:21.303Z,11.40
2023-03-21T03:47:15.176Z,11.40
2023-03-21T03:49:59.374Z,11.50
2023-03-21T03:52:35.036Z,11.40
2023-03-21T03:55:02.624Z,11.40
2023-03-21T03:57:29.869Z,11.40
2023-03-21T03:59:57.538Z,11.40
2023-03-21T04:02:24.349Z,11.40
2023-03-21T04:04:53.367Z,11.40
2023-03-21T04:07:21.404Z,11.40
2023-03-21T04:09:48.120Z,11.40
2023-03-21T04:12:14.758Z,11.40
2023-03-21T04:14:46.964Z,11.40
2023-03-21T04:17:15.536Z,11.40
2023-03-21T04:19:42.583Z,11.40
2023-03-21T04:22:09.423Z,11.40
2023-03-21T04:24:37.397Z,11.40
2023-03-21T04:27:05.767Z,11.40
2023-03-21T04:29:32.925Z,11.40
2023-03-21T04:31:59.808Z,11.40
2023-03-21T04:34:28.081Z,11.40
2023-03-21T04:36:55.480Z,11.40
2023-03-21T04:39:22.287Z,11.40
2023-03-21T04:41:49.877Z,11.40
2023-03-21T04:44:17.172Z,11.40
2023-03-21T04:46:44.588Z,11.40
2023-03-21T04:49:11.428Z,11.40
2023-03-21T04:51:38.862Z,11.40
2023-03-21T04:54:05.893Z,11.30
2023-03-21T04:56:33.905Z,11.40
2023-03-21T04:59:03.746Z,11.30
2023-03-21T05:01:30.886Z,11.30
2023-03-21T05:04:02.428Z,11.30
2023-03-21T05:06:29.898Z,11.30
2023-03-21T05:09:01.685Z,11.30
2023-03-21T05:11:30.881Z,11.30
2023-03-21T05:13:59.240Z,11.30
2023-03-21T05:16:30.478Z,11.30
2023-03-21T05:18:59.094Z,11.30
2023-03-21T05:21:29.452Z,11.30
2023-03-21T05:23:58.315Z,11.30
2023-03-21T05:26:25.301Z,11.30
2023-03-21T05:28:51.984Z,11.30
2023-03-21T05:31:19.204Z,11.30
2023-03-21T05:33:46.906Z,11.20
2023-03-21T05:36:14.773Z,11.20
2023-03-21T05:38:45.384Z,11.20
2023-03-21T05:41:13.356Z,11.20
2023-03-21T05:43:40.135Z,11.20
2023-03-21T05:46:07.642Z,11.20
2023-03-21T05:48:34.769Z,11.20
2023-03-21T05:51:02.480Z,11.20
2023-03-21T05:53:29.250Z,11.20
2023-03-21T05:55:56.042Z,11.20
2023-03-21T05:58:22.806Z,11.20
2023-03-21T06:00:49.493Z,11.20
2023-03-21T06:03:16.152Z,11.20
2023-03-21T06:05:42.834Z,11.20
2023-03-21T06:08:09.466Z,11.20
2023-03-21T06:10:36.312Z,11.20
2023-03-21T06:13:02.950Z,11.20
2023-03-21T06:15:29.693Z,11.20
2023-03-21T06:17:56.502Z,11.20
2023-03-21T06:20:23.160Z,11.20
2023-03-21T06:22:49.798Z,11.20
2023-03-21T06:25:16.663Z,11.20
2023-03-21T06:27:43.337Z,11.20
2023-03-21T06:30:11.904Z,11.20
2023-03-21T06:32:38.661Z,11.20
2023-03-21T06:35:05.766Z,11.20
2023-03-21T06:37:32.419Z,11.20
2023-03-21T06:39:59.091Z,11.20
2023-03-21T06:42:25.761Z,11.20
2023-03-21T06:44:52.469Z,11.20
2023-03-21T06:47:19.173Z,11.20
2023-03-21T06:49:45.979Z,11.20
2023-03-21T06:52:12.683Z,11.20
2023-03-21T06:54:39.342Z,11.20
2023-03-21T06:57:05.988Z,11.20
2023-03-21T06:59:32.692Z,11.20
2023-03-21T07:01:59.353Z,11.20
2023-03-21T07:04:27.047Z,11.20
2023-03-21T07:06:54.022Z,11.20
2023-03-21T07:09:24.435Z,11.20
2023-03-21T07:11:53.463Z,11.20
2023-03-21T07:14:20.256Z,11.20
2023-03-21T07:16:47.092Z,11.20
2023-03-21T07:19:14.035Z,11.20
2023-03-21T07:21:40.810Z,11.20
2023-03-21T07:24:07.727Z,11.30
2023-03-21T07:26:34.532Z,11.30
2023-03-21T07:29:01.235Z,11.30
2023-03-21T07:31:27.943Z,11.30
2023-03-21T07:33:54.794Z,11.30
2023-03-21T07:36:22.124Z,11.30
2023-03-21T07:38:49.135Z,11.30
2023-03-21T07:43:43.773Z,11.40
2023-03-21T07:46:10.827Z,11.40
2023-03-21T07:48:37.997Z,11.30
2023-03-21T07:51:06.338Z,11.40
2023-03-21T07:53:33.002Z,11.40
2023-03-21T07:55:59.698Z,11.40
2023-03-21T07:58:27.204Z,11.50
2023-03-21T08:00:53.986Z,11.40
2023-03-21T08:03:21.208Z,11.50
2023-03-21T08:05:47.931Z,11.50
2023-03-21T08:08:14.734Z,11.50
2023-03-21T08:10:43.636Z,11.50
2023-03-21T08:13:10.250Z,11.60
2023-03-21T08:15:37.678Z,11.60
2023-03-21T08:18:04.510Z,11.60
2023-03-21T08:20:31.211Z,11.60
2023-03-21T08:22:57.938Z,11.60
2023-03-21T08:25:24.884Z,11.70
2023-03-21T08:27:52.703Z,11.60
2023-03-21T08:30:22.217Z,11.70
2023-03-21T08:32:49.784Z,11.70
2023-03-21T08:35:18.640Z,11.70
2023-03-21T08:37:45.287Z,11.70
2023-03-21T08:40:15.533Z,11.70
2023-03-21T08:42:43.258Z,11.80
2023-03-21T08:45:11.172Z,11.80
2023-03-21T08:47:37.940Z,11.80
2023-03-21T08:50:07.108Z,11.90
2023-03-21T08:52:34.161Z,11.80
2023-03-21T08:55:02.262Z,11.90
2023-03-21T08:57:29.706Z,11.90
2023-03-21T08:59:56.565Z,11.90
2023-03-21T09:02:23.230Z,11.90
2023-03-21T09:04:49.981Z,12.00
2023-03-21T09:07:17.956Z,12.00
2023-03-21T09:09:45.960Z,12.00
2023-03-21T09:12:14.452Z,12.10
2023-03-21T09:14:41.216Z,12.10
2023-03-21T09:17:07.902Z,12.10
2023-03-21T09:19:35.005Z,12.20
2023-03-21T09:22:04.990Z,12.20
2023-03-21T09:24:32.081Z,12.30
2023-03-21T09:26:59.461Z,12.30
2023-03-21T09:29:26.445Z,12.40
2023-03-21T09:31:54.376Z,12.40
2023-03-21T09:34:21.216Z,12.50
2023-03-21T09:36:48.813Z,12.60
2023-03-21T09:39:17.064Z,12.60
2023-03-21T09:41:55.653Z,12.70
2023-03-21T09:44:31.940Z,12.70
2023-03-21T09:47:22.077Z,12.80
2023-03-21T09:50:12.903Z,12.90
2023-03-21T09:52:50.646Z,12.90
2023-03-21T09:55:22.436Z,13.00
2023-03-21T09:57:59.526Z,13.10
2023-03-21T10:00:35.115Z,13.20
2023-03-21T10:03:06.811Z,13.20
2023-03-21T10:05:35.544Z,13.30
2023-03-21T10:08:19.360Z,13.40
2023-03-21T10:10:50.374Z,13.40
2023-03-21T10:13:25.447Z,13.50
2023-03-21T10:15:58.364Z,13.60
2023-03-21T10:18:27.874Z,13.70
2023-03-21T10:20:54.800Z,13.70
2023-03-21T10:23:27.674Z,13.80
2023-03-21T10:26:07.913Z,13.80
2023-03-21T10:28:52.420Z,13.90
2023-03-21T10:31:25.424Z,13.90
2023-03-21T10:33:55.346Z,14.00
2023-03-21T10:36:28.086Z,14.10
2023-03-21T10:39:04.879Z,14.10
2023-03-21T10:41:32.625Z,14.20
2023-03-21T10:44:11.958Z,14.20
2023-03-21T10:46:38.811Z,14.20
2023-03-21T10:49:08.393Z,14.30
2023-03-21T10:51:37.756Z,14.40
2023-03-21T10:54:17.935Z,14.40
2023-03-21T10:56:55.102Z,14.50
2023-03-21T10:59:22.874Z,14.50
2023-03-21T11:01:56.420Z,14.60
2023-03-21T11:04:27.531Z,14.60
2023-03-21T11:07:08.171Z,14.70
2023-03-21T11:09:57.809Z,14.70
2023-03-21T11:12:37.087Z,14.80
2023-03-21T11:15:23.989Z,14.80
2023-03-21T11:17:50.722Z,14.90
2023-03-21T11:20:21.519Z,14.90
2023-03-21T11:22:49.329Z,15.00
2023-03-21T11:25:31.971Z,15.00
2023-03-21T11:28:05.030Z,15.10
2023-03-21T11:30:32.922Z,15.10
2023-03-21T11:33:06.205Z,15.20
2023-03-21T11:35:37.022Z,15.20
2023-03-21T11:38:04.468Z,15.30
2023-03-21T11:40:34.134Z,15.40
2023-03-21T11:43:04.094Z,15.40
2023-03-21T11:45:35.877Z,15.40
2023-03-21T11:48:12.838Z,15.50
2023-03-21T11:50:42.492Z,15.50
2023-03-21T11:53:44.262Z,15.60
2023-03-21T11:56:23.125Z,15.60
2023-03-21T11:59:33.276Z,15.70
2023-03-21T12:02:19.640Z,15.70
2023-03-21T12:04:57.203Z,15.70
2023-03-21T12:07:47.514Z,15.80
2023-03-21T12:10:14.141Z,15.80
2023-03-21T12:13:08.196Z,15.80
2023-03-21T12:16:02.927Z,15.90
2023-03-21T12:18:43.446Z,16.00
2023-03-21T12:21:26.565Z,16.00
2023-03-21T12:24:24.480Z,16.10
2023-03-21T12:27:07.041Z,16.20
2023-03-21T12:29:43.892Z,16.30
2023-03-21T12:32:43.699Z,16.40
2023-03-21T12:35:16.588Z,16.60
2023-03-21T12:38:10.379Z,16.70
2023-03-21T12:40:49.581Z,16.70
2023-03-21T12:43:44.163Z,16.90
2023-03-21T12:46:29.853Z,17.00
2023-03-21T12:49:26.483Z,17.10
2023-03-21T12:52:01.676Z,17.10
2023-03-21T12:54:54.655Z,17.20
2023-03-21T12:57:51.087Z,17.20
2023-03-21T13:00:27.647Z,17.20
2023-03-21T13:03:01.196Z,17.20
2023-03-21T13:05:59.755Z,17.30
2023-03-21T13:08:51.304Z,17.30
2023-03-21T13:11:22.388Z,17.30
2023-03-21T13:14:11.111Z,17.30
2023-03-21T13:17:00.585Z,17.20
2023-03-21T13:19:46.526Z,17.30
2023-03-21T13:22:28.851Z,17.30
2023-03-21T13:25:04.489Z,17.20
2023-03-21T13:27:34.017Z,17.30
2023-03-21T13:30:02.583Z,17.20
2023-03-21T13:32:41.596Z,17.20
2023-03-21T13:35:27.144Z,17.20
2023-03-21T13:37:59.140Z,17.20
2023-03-21T13:40:34.540Z,17.20
2023-03-21T13:43:03.782Z,17.20
2023-03-21T13:45:45.231Z,17.20
2023-03-21T13:48:30.406Z,17.20
2023-03-21T13:51:02.375Z,17.20
2023-03-21T13:53:39.916Z,17.20
2023-03-21T13:56:22.014Z,17.20
2023-03-21T13:58:53.067Z,17.10
2023-03-21T14:01:39.712Z,17.10
2023-03-21T14:04:17.404Z,17.10
2023-03-21T14:07:05.032Z,17.10
2023-03-21T14:09:33.957Z,17.10
2023-03-21T14:12:07.551Z,17.10
2023-03-21T14:14:42.201Z,17.00
2023-03-21T14:17:13.506Z,17.00
2023-03-21T14:19:40.253Z,16.90
2023-03-21T14:22:13.092Z,16.90
2023-03-21T14:24:41.148Z,16.90
2023-03-21T14:27:08.797Z,16.90
2023-03-21T14:29:35.873Z,16.90
2023-03-21T14:32:05.650Z,16.80
2023-03-21T14:34:35.684Z,16.80
2023-03-21T14:37:02.440Z,16.80
2023-03-21T14:39:31.946Z,16.70
2023-03-21T14:42:06.102Z,16.70
2023-03-21T14:44:53.597Z,16.70
2023-03-21T14:47:24.176Z,16.70
2023-03-21T14:49:51.914Z,16.70
2023-03-21T14:52:29.998Z,16.60
2023-03-21T14:54:57.170Z,16.60
2023-03-21T14:57:29.003Z,16.50
2023-03-21T15:00:01.743Z,16.50
2023-03-21T15:02:35.802Z,16.40
2023-03-21T15:05:15.374Z,16.50
2023-03-21T15:07:42.057Z,16.40
2023-03-21T15:10:17.988Z,16.40
2023-03-21T15:13:02.938Z,16.40
2023-03-21T15:15:31.693Z,16.30
2023-03-21T15:18:03.975Z,16.30
2023-03-21T15:20:34.285Z,16.20
2023-03-21T15:23:07.145Z,16.20
2023-03-21T15:25:35.953Z,16.10
2023-03-21T15:28:04.330Z,16.10
2023-03-21T15:30:36.849Z,16.10
2023-03-21T15:33:09.697Z,16.10
2023-03-21T15:35:44.474Z,16.00
2023-03-21T15:38:42.458Z,16.00
2023-03-21T15:41:21.195Z,15.90
2023-03-21T15:44:02.619Z,15.90
2023-03-21T15:46:44.432Z,15.80
2023-03-21T15:49:16.818Z,15.80
2023-03-21T15:51:51.398Z,15.70
2023-03-21T15:54:28.738Z,15.70
2023-03-21T15:56:57.453Z,15.60
2023-03-21T15:59:27.329Z,15.60
2023-03-21T16:01:54.169Z,15.60
2023-03-21T16:04:21.024Z,15.50
2023-03-21T16:06:58.336Z,15.50
2023-03-21T16:09:25.366Z,15.50
2023-03-21T16:11:56.979Z,15.40
2023-03-21T16:14:27.807Z,15.40
2023-03-21T16:16:55.042Z,15.40
2023-03-21T16:19:21.987Z,15.40
2023-03-21T16:21:48.609Z,15.30
2023-03-21T16:24:15.285Z,15.30
2023-03-21T16:26:47.886Z,15.30
2023-03-21T16:29:15.895Z,15.20
2023-03-21T16:31:43.061Z,15.20
2023-03-21T16:34:10.782Z,15.20
2023-03-21T16:36:40.256Z,15.20
2023-03-21T16:39:18.072Z,15.20
2023-03-21T16:41:45.538Z,15.20
2023-03-21T16:44:12.244Z,15.20
2023-03-21T16:46:39.163Z,15.10
2023-03-21T16:49:06.114Z,15.20
2023-03-21T16:51:35.702Z,15.10
2023-03-21T16:54:03.288Z,15.10
2023-03-21T16:56:36.126Z,15.10
2023-03-21T16:59:02.922Z,15.10
2023-03-21T17:01:30.665Z,15.00
2023-03-21T17:03:58.278Z,14.90
2023-03-21T17:06:27.723Z,14.90
2023-03-21T17:08:55.757Z,14.90
2023-03-21T17:11:25.249Z,14.80
2023-03-21T17:13:55.527Z,14.80
2023-03-21T17:16:26.904Z,14.80
2023-03-21T17:18:54.772Z,14.70
2023-03-21T17:21:26.595Z,14.70
2023-03-21T17:23:53.266Z,14.70
2023-03-21T17:26:28.449Z,14.70
2023-03-21T17:28:56.826Z,14.60
2023-03-21T17:31:25.526Z,14.60
2023-03-21T17:33:52.336Z,14.60
2023-03-21T17:36:26.481Z,14.60
2023-03-21T17:38:53.166Z,14.50
2023-03-21T17:41:22.169Z,14.50
2023-03-21T17:43:49.923Z,14.50
2023-03-21T17:46:19.472Z,14.50
2023-03-21T17:48:46.596Z,14.40
2023-03-21T17:51:15.874Z,14.40
2023-03-21T17:53:43.897Z,14.40
2023-03-21T17:56:15.559Z,14.30
2023-03-21T17:58:42.408Z,14.30
2023-03-21T18:01:09.064Z,14.30
2023-03-21T18:03:35.842Z,14.20
2023-03-21T18:06:03.797Z,14.20
2023-03-21T18:08:30.621Z,14.20
2023-03-21T18:10:57.366Z,14.20
2023-03-21T18:13:24.097Z,14.20
2023-03-21T18:15:51.105Z,14.20
2023-03-21T18:18:18.136Z,14.20
2023-03-21T18:20:52.118Z,14.10
2023-03-21T18:23:21.312Z,14.10
2023-03-21T18:25:48.107Z,14.10
2023-03-21T18:28:19.508Z,14.10
2023-03-21T18:33:37.033Z,14.10
2023-03-21T18:36:07.444Z,14.00
2023-03-21T18:38:35.505Z,14.00
2023-03-21T18:41:02.240Z,13.90
2023-03-21T18:46:16.368Z,13.90
2023-03-21T18:48:43.423Z,13.90
2023-03-21T18:51:10.118Z,13.80
2023-03-21T18:53:36.824Z,13.80
2023-03-21T18:56:09.614Z,13.80
2023-03-21T18:58:37.173Z,13.70
2023-03-21T19:01:05.209Z,13.70
2023-03-21T19:03:37.110Z,13.70
2023-03-21T19:06:05.445Z,13.70
2023-03-21T19:08:34.716Z,13.60
2023-03-21T19:11:06.029Z,13.60
2023-03-21T19:13:33.487Z,13.60
2023-03-21T19:16:02.403Z,13.50
2023-03-21T19:18:52.133Z,13.50
2023-03-21T19:21:18.852Z,13.40
2023-03-21T19:26:32.818Z,13.40
2023-03-21T19:28:59.492Z,13.30
2023-03-21T19:31:26.774Z,13.30
2023-03-21T19:33:53.773Z,13.20
2023-03-21T19:36:22.840Z,13.20
2023-03-21T19:38:50.414Z,13.20
2023-03-21T19:41:18.065Z,13.10
2023-03-21T19:43:53.673Z,13.10
2023-03-21T19:46:24.498Z,13.10
2023-03-21T19:48:51.464Z,13.00
2023-03-21T19:51:28.123Z,12.90
2023-03-21T19:53:55.222Z,12.90
2023-03-21T19:56:26.203Z,12.90
2023-03-21T19:58:53.978Z,12.80
2023-03-21T20:01:21.245Z,12.80
2023-03-21T20:03:47.979Z,12.70
2023-03-21T20:06:14.784Z,12.70
2023-03-21T20:11:28.123Z,12.60
2023-03-21T20:13:54.878Z,12.60
2023-03-21T20:16:21.659Z,12.60
2023-03-21T20:18:48.356Z,12.50
2023-03-21T20:21:18.021Z,12.50
2023-03-21T20:23:50.733Z,12.50
2023-03-21T20:26:18.342Z,12.40
2023-03-21T20:29:01.178Z,12.40
2023-03-21T20:31:35.289Z,12.40
2023-03-21T20:34:02.372Z,12.30
2023-03-21T20:36:39.332Z,12.30
2023-03-21T20:39:06.632Z,12.30
2023-03-21T20:41:33.256Z,12.20
2023-03-21T20:47:11.514Z,12.10
2023-03-21T20:49:58.043Z,12.10
2023-03-21T20:52:57.493Z,12.10
2023-03-21T20:55:13.378Z,12.10
2023-03-21T20:57:41.285Z,12.00
2023-03-21T21:00:13.538Z,12.00
2023-03-21T21:02:43.532Z,12.00
2023-03-21T21:05:42.183Z,11.90
2023-03-21T21:08:08.971Z,11.90
2023-03-21T21:10:57.692Z,11.90
2023-03-21T21:13:23.878Z,11.80
2023-03-21T21:15:50.960Z,11.80
2023-03-21T21:18:18.462Z,11.80
2023-03-21T21:20:45.114Z,11.80
2023-03-21T21:23:13.566Z,11.70
2023-03-21T21:25:40.285Z,11.70
2023-03-21T21:28:09.440Z,11.70
2023-03-21T21:30:41.195Z,11.70
2023-03-21T21:33:08.090Z,11.70
2023-03-21T21:35:35.826Z,11.70
2023-03-21T21:38:02.681Z,11.70
2023-03-21T21:40:29.556Z,11.60
2023-03-21T21:42:57.570Z,11.60
2023-03-21T21:45:24.990Z,11.60
2023-03-21T21:47:51.879Z,11.60
2023-03-21T21:50:19.845Z,11.60
2023-03-21T21:52:54.146Z,11.60
2023-03-21T21:55:21.394Z,11.50
2023-03-21T21:57:50.588Z,11.50
2023-03-21T22:00:19.364Z,11.50
2023-03-21T22:02:46.838Z,11.50
2023-03-21T22:05:13.493Z,11.50
2023-03-21T22:07:40.214Z,11.40
2023-03-21T22:10:08.015Z,11.40
2023-03-21T22:12:35.285Z,11.40
2023-03-21T22:15:02.401Z,11.40
2023-03-21T22:17:32.167Z,11.40
2023-03-21T22:20:12.548Z,11.40
2023-03-21T22:22:39.477Z,11.30
2023-03-21T22:25:09.531Z,11.40
2023-03-21T22:27:36.917Z,11.30
2023-03-21T22:30:05.114Z,11.30
2023-03-21T22:32:33.313Z,11.30
2023-03-21T22:35:02.413Z,11.30
2023-03-21T22:37:30.888Z,11.20
2023-03-21T22:39:57.595Z,11.20
2023-03-21T22:42:24.521Z,11.20
2023-03-21T22:44:51.396Z,11.20
2023-03-21T22:47:18.452Z,11.20
2023-03-21T22:49:46.214Z,11.20
2023-03-21T22:52:13.653Z,11.20
2023-03-21T22:54:40.464Z,11.20
2023-03-21T22:57:08.554Z,11.20
2023-03-21T22:59:35.218Z,11.20
2023-03-21T23:02:01.975Z,11.10
2023-03-21T23:04:28.751Z,11.10
2023-03-21T23:06:55.627Z,11.10
2023-03-21T23:09:22.337Z,11.10
2023-03-21T23:11:49.687Z,11.10
2023-03-21T23:14:17.418Z,11.10
2023-03-21T23:16:45.003Z,11.00
2023-03-21T23:19:11.892Z,11.00
2023-03-21T23:21:39.450Z,11.00
2023-03-21T23:24:07.481Z,11.00
2023-03-21T23:26:34.855Z,11.00
2023-03-21T23:29:01.453Z,11.00
2023-03-21T23:31:28.626Z,10.90
2023-03-21T23:33:57.864Z,10.90
2023-03-21T23:36:24.607Z,10.90
2023-03-21T23:38:52.600Z,10.90
2023-03-21T23:41:21.986Z,10.90
2023-03-21T23:43:49.093Z,10.90
2023-03-21T23:46:17.281Z,10.90
2023-03-21T23:48:44.964Z,10.80
2023-03-21T23:51:13.745Z,10.80
2023-03-21T23:53:40.500Z,10.80
2023-03-21T23:56:16.040Z,10.80
2023-03-21T23:58:43.255Z,10.80
